Time;durP1;ratioP1;P1;durP2;ratioP2;P2;SDS_P1;SDS_P2;PMS_P1;PMS_P2;Temp;Humidity;BMP_temperature;BMP_pressure;BME280_temperature;BME280_humidity;BME280_pressure;Samples;Min_cycle;Max_cycle;Signal;HPM_P1;HPM_P2
2022/03/22 00:00:40;;;;;;;6.77;5.57;;;;;;;11.43;17.90;97434.34;5097822;28;20212;-82
2022/03/22 00:03:10;;;;;;;7.83;5.50;;;;;;;11.49;17.66;97426.22;5097957;28;20207;-81
2022/03/22 00:05:40;;;;;;;7.40;6.03;;;;;;;11.48;18.38;97461.59;5105120;28;20222;-75
2022/03/22 00:08:07;;;;;;;8.40;5.63;;;;;;;11.38;17.96;97462.03;5091067;27;20264;-77
2022/03/22 00:10:36;;;;;;;6.57;5.00;;;;;;;11.43;17.57;97458.66;5099346;27;20622;-79
2022/03/22 00:13:04;;;;;;;6.43;5.10;;;;;;;11.38;17.98;97430.41;5102619;28;20253;-80
2022/03/22 00:15:31;;;;;;;8.90;5.50;;;;;;;11.36;17.99;97450.56;5091686;28;20224;-82
2022/03/22 00:17:59;;;;;;;7.80;5.57;;;;;;;11.39;17.65;97458.28;5099371;28;20267;-79
2022/03/22 00:20:27;;;;;;;6.70;5.03;;;;;;;11.33;18.11;97454.50;5095654;28;20209;-81
2022/03/22 00:22:55;;;;;;;8.07;4.93;;;;;;;11.24;17.92;97450.34;5096345;28;20185;-81
2022/03/22 00:25:23;;;;;;;7.97;5.43;;;;;;;11.19;17.76;97442.03;5100184;28;20229;-81
2022/03/22 00:27:53;;;;;;;7.00;5.20;;;;;;;11.05;17.66;97440.38;5095206;28;20225;-81
2022/03/22 00:30:22;;;;;;;8.00;5.37;;;;;;;11.29;16.85;97450.56;5070569;28;20249;-81
2022/03/22 00:32:52;;;;;;;7.43;4.60;;;;;;;11.30;16.72;97451.41;5077510;28;20209;-81
2022/03/22 00:35:19;;;;;;;5.40;4.83;;;;;;;11.24;16.86;97455.75;5078327;28;20224;-80
2022/03/22 00:37:49;;;;;;;9.03;5.00;;;;;;;11.23;16.73;97448.69;5078291;28;20290;-83
2022/03/22 00:40:17;;;;;;;7.90;4.80;;;;;;;11.18;16.91;97451.19;5086606;27;20230;-84
2022/03/22 00:42:46;;;;;;;7.73;4.43;;;;;;;11.15;16.79;97446.19;5091289;28;20270;-83
2022/03/22 00:45:16;;;;;;;7.33;4.90;;;;;;;11.07;16.91;97443.69;5096127;28;20293;-83
2022/03/22 00:47:45;;;;;;;6.13;5.13;;;;;;;11.06;17.26;97449.31;5100674;28;20205;-82
2022/03/22 00:50:13;;;;;;;5.33;4.30;;;;;;;11.24;16.67;97450.34;5088521;28;20204;-81
2022/03/22 00:52:40;;;;;;;5.70;4.63;;;;;;;11.06;17.29;97442.00;5108646;27;20208;-80
2022/03/22 00:55:11;;;;;;;6.57;4.60;;;;;;;10.96;17.18;97447.03;5102431;28;20208;-82
2022/03/22 00:57:56;;;;;;;6.50;4.67;;;;;;;11.07;16.96;97445.56;5131287;27;20530;-81
2022/03/22 01:00:25;;;;;;;6.83;4.43;;;;;;;10.92;17.35;97457.41;5083032;28;20216;-82
2022/03/22 01:02:54;;;;;;;7.43;4.80;;;;;;;11.00;16.86;97442.84;5099677;28;20256;-81
2022/03/22 01:05:23;;;;;;;6.97;4.83;;;;;;;11.06;16.40;97442.00;5077724;28;20562;-81
2022/03/22 01:07:54;;;;;;;6.83;4.23;;;;;;;10.93;16.83;97444.72;5078115;28;20193;-84
2022/03/22 01:10:23;;;;;;;7.50;4.70;;;;;;;10.91;17.08;97430.56;5102293;28;20275;-82
2022/03/22 01:12:51;;;;;;;9.87;4.93;;;;;;;11.05;16.82;97426.88;5098327;28;20213;-82
2022/03/22 01:15:22;;;;;;;6.20;4.77;;;;;;;11.05;16.11;97429.56;5077554;28;20201;-82
2022/03/22 01:17:54;;;;;;;7.13;4.63;;;;;;;11.05;16.52;97431.44;5080607;28;20216;-82
2022/03/22 01:20:24;;;;;;;5.33;4.57;;;;;;;11.05;16.82;97426.88;5081287;28;20201;-82
2022/03/22 01:22:52;;;;;;;5.67;4.70;;;;;;;10.87;17.23;97426.63;5081253;28;20208;-82
2022/03/22 01:25:22;;;;;;;5.77;4.40;;;;;;;10.87;17.23;97426.63;5078020;28;20193;-82
2022/03/22 01:27:49;;;;;;;6.67;4.47;;;;;;;11.06;16.38;97425.78;5083560;28;20212;-82
2022/03/22 01:30:20;;;;;;;5.67;4.43;;;;;;;11.02;15.88;97419.16;5082266;28;20212;-82
2022/03/22 01:32:48;;;;;;;6.07;4.33;;;;;;;10.97;16.09;97427.06;5096801;28;20215;-82
2022/03/22 01:35:16;;;;;;;6.00;4.27;;;;;;;10.94;16.20;97419.38;5080363;28;20208;-82
2022/03/22 01:37:47;;;;;;;6.63;4.80;;;;;;;11.05;15.62;97407.94;5081434;28;20316;-82
2022/03/22 01:40:17;;;;;;;5.40;4.23;;;;;;;11.01;16.02;97412.09;5080682;28;20205;-82
2022/03/22 01:42:44;;;;;;;6.20;3.90;;;;;;;11.15;15.84;97408.34;5094752;28;20197;-82
2022/03/22 01:45:13;;;;;;;8.43;4.57;;;;;;;11.00;15.90;97392.34;5082920;28;20205;-82
2022/03/22 01:47:43;;;;;;;8.47;4.60;;;;;;;11.04;16.22;97395.47;5093287;28;20212;-82
2022/03/22 01:50:12;;;;;;;6.13;4.53;;;;;;;10.88;15.54;97406.69;5082521;28;20263;-83
2022/03/22 01:52:42;;;;;;;5.47;4.60;;;;;;;10.87;15.87;97384.22;5100325;27;20259;-83
2022/03/22 01:55:10;;;;;;;6.33;4.20;;;;;;;10.93;16.11;97393.38;5079467;28;20203;-83
2022/03/22 01:57:37;;;;;;;5.57;3.80;;;;;;;10.85;16.22;97380.06;5078851;28;20322;-82
2022/03/22 02:00:06;;;;;;;5.57;3.87;;;;;;;10.83;15.52;97391.06;5077166;28;20204;-83
2022/03/22 02:08:16;;;;;;;5.90;4.03;;;;;;;10.81;15.47;97405.81;5084828;28;20209;-82
2022/03/22 02:10:44;;;;;;;4.70;3.63;;;;;;;10.94;15.30;97395.03;5065843;28;20288;-82
2022/03/22 02:13:11;;;;;;;7.67;4.33;;;;;;;10.72;16.02;97390.88;5068106;28;20255;-82
2022/03/22 02:15:38;;;;;;;7.07;4.07;;;;;;;10.93;15.06;97374.47;5064137;28;20206;-82
2022/03/22 02:18:07;;;;;;;7.13;3.80;;;;;;;11.03;14.59;97393.78;5058138;28;20210;-83
2022/03/22 02:22:59;;;;;;;6.87;3.83;;;;;;;10.93;15.03;97379.84;5122476;27;20299;-82
2022/03/22 02:25:27;;;;;;;7.57;3.90;;;;;;;10.79;15.42;97391.72;5103597;28;20200;-81
2022/03/22 02:27:55;;;;;;;5.50;4.03;;;;;;;10.88;14.85;97380.50;5094305;28;20216;-83
2022/03/22 02:30:23;;;;;;;6.13;3.77;;;;;;;10.86;14.70;97376.31;5104225;28;20297;-82
2022/03/22 02:32:52;;;;;;;4.77;3.80;;;;;;;10.82;14.51;97385.88;5098240;28;20226;-82
2022/03/22 02:35:19;;;;;;;5.33;3.90;;;;;;;10.97;14.36;97389.22;5135093;27;20204;-82
2022/03/22 02:37:47;;;;;;;6.23;3.70;;;;;;;10.92;13.96;97370.09;5094636;28;20216;-82
2022/03/22 02:40:15;;;;;;;4.80;3.60;;;;;;;10.78;15.02;97376.53;5094694;28;20202;-81
2022/03/22 02:42:45;;;;;;;5.67;3.80;;;;;;;10.70;15.06;97387.53;5103374;28;20237;-82
2022/03/22 02:45:13;;;;;;;7.93;4.17;;;;;;;10.49;15.52;97375.03;5122046;27;20310;-83
2022/03/22 02:47:40;;;;;;;6.47;3.77;;;;;;;10.50;15.51;97365.88;5102894;27;20232;-83
2022/03/22 02:50:08;;;;;;;4.40;3.40;;;;;;;10.62;15.17;97377.75;5097315;28;20678;-83
2022/03/22 02:52:36;;;;;;;8.00;3.83;;;;;;;10.44;15.81;97364.84;5109556;28;20215;-81
2022/03/22 02:55:06;;;;;;;4.70;3.53;;;;;;;10.42;15.61;97366.09;5092266;28;20196;-82
2022/03/22 02:57:33;;;;;;;6.10;4.10;;;;;;;10.29;15.79;97372.28;5108074;28;20218;-81
2022/03/22 03:00:02;;;;;;;5.37;3.80;;;;;;;10.25;16.08;97376.41;5093784;28;20231;-81
2022/03/22 03:02:30;;;;;;;4.63;3.73;;;;;;;10.34;15.50;97375.19;5087988;28;20235;-83
2022/03/22 03:04:57;;;;;;;4.27;3.53;;;;;;;10.45;15.30;97371.91;5094467;28;20268;-82
2022/03/22 03:07:25;;;;;;;5.47;3.77;;;;;;;10.48;14.67;97368.78;5105104;28;20230;-79
2022/03/22 03:09:52;;;;;;;5.27;3.50;;;;;;;10.50;15.03;97371.28;5098728;28;20262;-82
2022/03/22 03:12:19;;;;;;;5.27;3.70;;;;;;;10.58;14.71;97381.91;5092012;28;20193;-81
2022/03/22 03:14:47;;;;;;;6.87;3.63;;;;;;;10.54;14.85;97368.00;5096577;28;20231;-81
2022/03/22 03:17:15;;;;;;;7.10;3.80;;;;;;;10.58;14.33;97366.53;5085551;28;20205;-79
2022/03/22 03:19:44;;;;;;;3.67;3.17;;;;;;;10.64;14.50;97364.84;5081787;28;20220;-81
2022/03/22 03:22:11;;;;;;;6.03;3.43;;;;;;;10.68;14.57;97370.69;5074970;28;20233;-82
2022/03/22 03:24:38;;;;;;;5.00;3.60;;;;;;;10.57;14.67;97372.13;5083519;28;20286;-78
2022/03/22 03:27:05;;;;;;;9.70;3.30;;;;;;;10.72;14.15;97369.25;5084979;28;20192;-82
2022/03/22 03:29:32;;;;;;;5.40;3.23;;;;;;;10.72;14.22;97371.97;5072216;28;20281;-81
2022/03/22 03:31:59;;;;;;;6.63;3.57;;;;;;;10.76;13.85;97375.91;5071927;28;20235;-83
2022/03/22 03:34:28;;;;;;;5.43;3.50;;;;;;;10.66;14.18;97364.66;5058748;28;20271;-82
2022/03/22 03:36:55;;;;;;;7.40;3.30;;;;;;;10.50;15.00;97376.69;5061251;28;20202;-82
2022/03/22 03:39:22;;;;;;;3.77;3.30;;;;;;;10.48;14.50;97379.59;5068274;28;20205;-82
2022/03/22 03:41:57;;;;;;;5.63;3.47;;;;;;;10.50;14.45;97377.53;5082179;28;20221;-80
2022/03/22 03:47:13;;;;;;;7.43;3.50;;;;;;;10.46;14.51;97391.66;5066353;28;20217;-79
2022/03/22 03:49:44;;;;;;;5.13;3.60;;;;;;;10.68;14.37;97389.59;5058588;28;20213;-81
2022/03/22 03:52:13;;;;;;;4.37;2.90;;;;;;;10.56;14.16;97386.66;5053637;28;20186;-81
2022/03/22 03:54:40;;;;;;;6.30;3.50;;;;;;;10.34;14.61;97377.06;5075068;28;20210;-82
2022/03/22 03:57:09;;;;;;;8.00;3.23;;;;;;;10.27;14.88;97389.72;5070219;28;20308;-81
2022/03/22 03:59:38;;;;;;;5.27;3.10;;;;;;;10.39;14.77;97393.47;5084662;28;20216;-81
2022/03/22 04:02:07;;;;;;;7.30;3.33;;;;;;;10.42;14.31;97369.63;5079932;28;20219;-78
2022/03/22 04:04:35;;;;;;;3.93;3.13;;;;;;;10.53;14.30;97395.19;5073284;28;20209;-82
2022/03/22 04:07:05;;;;;;;7.27;4.03;;;;;;;10.45;14.77;97393.53;5061556;28;20213;-80
2022/03/22 04:09:32;;;;;;;7.23;3.17;;;;;;;10.49;14.29;97396.63;5060960;28;20277;-78
2022/03/22 04:11:59;;;;;;;5.70;3.30;;;;;;;10.46;14.35;97397.84;5064772;28;20279;-82
2022/03/22 04:14:26;;;;;;;4.27;2.97;;;;;;;10.28;14.82;97405.72;5074166;28;20206;-80
2022/03/22 04:16:56;;;;;;;6.40;3.30;;;;;;;10.35;14.65;97403.88;5077346;28;20233;-81
2022/03/22 04:19:23;;;;;;;12.10;3.50;;;;;;;10.67;13.58;97404.16;5065894;28;20232;-81
2022/03/22 04:21:51;;;;;;;5.40;3.27;;;;;;;10.50;14.10;97415.34;5061379;28;20256;-81
2022/03/22 04:24:20;;;;;;;6.93;3.20;;;;;;;10.47;14.23;97404.94;5056733;28;20210;-81
2022/03/22 04:26:48;;;;;;;6.03;3.23;;;;;;;10.55;13.89;97409.31;5058179;28;20216;-82
2022/03/22 04:34:47;;;;;;;5.83;3.87;;;;;;;10.30;14.66;97413.59;5077133;28;20286;-82
2022/03/22 04:37:15;;;;;;;3.97;2.93;;;;;;;10.34;14.40;97418.41;5087365;28;20202;-82
2022/03/22 04:39:46;;;;;;;5.50;3.13;;;;;;;10.40;14.44;97414.88;5058641;28;20210;-82
2022/03/22 04:42:14;;;;;;;5.80;3.20;;;;;;;10.32;14.48;97406.13;5061735;28;20252;-82
2022/03/22 04:44:42;;;;;;;4.53;3.33;;;;;;;10.37;13.83;97409.91;5063702;28;20202;-82
2022/03/22 04:47:10;;;;;;;5.63;3.20;;;;;;;10.44;14.30;97413.44;5054634;28;20199;-82
2022/03/22 04:49:37;;;;;;;6.77;2.93;;;;;;;10.40;14.24;97414.88;5077911;28;20221;-82
2022/03/22 04:57:36;;;;;;;4.07;3.10;;;;;;;10.73;13.75;97422.22;5062737;28;20217;-80
2022/03/22 05:00:05;;;;;;;7.30;3.43;;;;;;;10.60;13.46;97434.69;5054752;28;20208;-80
2022/03/22 05:02:32;;;;;;;4.37;3.10;;;;;;;10.63;13.48;97430.75;5058277;28;20344;-82
2022/03/22 05:05:00;;;;;;;3.73;2.90;;;;;;;10.58;13.58;97425.94;5061726;28;20317;-82
2022/03/22 05:07:28;;;;;;;6.63;3.10;;;;;;;10.58;13.54;97438.63;5065703;28;20229;-76
2022/03/22 05:09:56;;;;;;;5.13;3.17;;;;;;;10.73;12.97;97435.72;5056754;28;20210;-82
2022/03/22 05:12:24;;;;;;;6.93;3.40;;;;;;;10.58;13.88;97427.81;5087217;27;20390;-82
2022/03/22 05:14:51;;;;;;;7.33;3.90;;;;;;;10.57;13.82;97439.66;5063309;28;20202;-79
2022/03/22 05:17:21;;;;;;;5.63;3.20;;;;;;;10.60;13.71;97421.19;5073983;28;20212;-82
2022/03/22 05:19:50;;;;;;;8.00;3.67;;;;;;;10.58;13.29;97434.03;5075827;28;20290;-82
2022/03/22 05:22:17;;;;;;;10.53;3.50;;;;;;;10.54;13.87;97435.50;5057255;28;20233;-83
2022/03/22 05:24:44;;;;;;;5.83;3.37;;;;;;;10.61;13.72;97443.63;5066731;28;20315;-80
2022/03/22 05:27:15;;;;;;;4.90;3.53;;;;;;;10.50;13.66;97436.94;5079522;28;20206;-82
2022/03/22 05:29:42;;;;;;;8.53;3.47;;;;;;;10.54;13.46;97438.22;5066804;28;20262;-82
2022/03/22 05:32:10;;;;;;;6.17;3.63;;;;;;;10.58;13.64;97433.22;5065643;28;20219;-82
2022/03/22 05:34:37;;;;;;;4.73;3.27;;;;;;;10.45;14.08;97442.13;5063128;28;20212;-81
2022/03/22 05:37:05;;;;;;;4.67;3.17;;;;;;;10.63;14.01;97438.03;5064050;28;20228;-82
2022/03/22 05:39:32;;;;;;;5.23;3.20;;;;;;;10.59;13.59;97451.09;5060426;28;20303;-82
2022/03/22 05:41:59;;;;;;;7.70;3.63;;;;;;;10.53;13.96;97441.94;5068580;28;20224;-83
2022/03/22 05:44:27;;;;;;;4.83;3.33;;;;;;;10.44;13.86;97439.63;5067710;28;20197;-83
2022/03/22 05:46:58;;;;;;;5.60;3.53;;;;;;;10.68;13.14;97449.03;5093374;28;20202;-81
2022/03/22 05:49:25;;;;;;;7.70;4.27;;;;;;;10.63;13.48;97430.75;5060011;28;20214;-82
2022/03/22 05:51:52;;;;;;;4.90;3.50;;;;;;;10.69;13.24;97435.31;5065492;28;20251;-82
2022/03/22 05:54:20;;;;;;;6.23;3.77;;;;;;;10.73;13.60;97441.13;5086269;28;20216;-84
2022/03/22 05:56:47;;;;;;;4.87;3.27;;;;;;;10.75;13.34;97447.16;5057097;28;20209;-82
2022/03/22 05:59:14;;;;;;;4.30;3.40;;;;;;;10.80;13.14;97437.41;5067212;28;20232;-83
2022/03/22 06:01:44;;;;;;;6.60;3.63;;;;;;;10.75;13.66;97450.72;5054666;28;20329;-82
2022/03/22 06:04:12;;;;;;;9.60;3.53;;;;;;;10.69;13.92;97458.81;5058256;28;20275;-83
2022/03/22 06:06:40;;;;;;;6.97;3.83;;;;;;;10.84;13.21;97462.16;5052299;28;20209;-82
2022/03/22 06:09:07;;;;;;;5.77;3.30;;;;;;;10.70;13.99;97464.00;5053126;28;20206;-81
2022/03/22 06:11:35;;;;;;;7.03;3.50;;;;;;;10.63;13.71;97451.53;5060147;28;20198;-83
2022/03/22 06:14:04;;;;;;;8.40;4.03;;;;;;;10.71;13.44;97470.25;5071707;28;20291;-83
2022/03/22 06:16:31;;;;;;;4.20;3.17;;;;;;;10.72;13.82;97466.50;5053033;28;20214;-83
2022/03/22 06:19:00;;;;;;;6.97;4.90;;;;;;;9.94;30.75;97479.44;5065978;28;20213;-84
2022/03/22 06:21:27;;;;;;;9.07;5.67;;;;;;;8.70;38.88;97474.66;5055923;28;20229;-83
2022/03/22 06:23:55;;;;;;;11.43;5.53;;;;;;;8.31;42.53;97483.13;5058900;28;20292;-82
2022/03/22 06:26:22;;;;;;;8.93;5.90;;;;;;;7.79;47.22;97497.50;5065555;28;20205;-83
2022/03/22 06:28:49;;;;;;;10.33;6.33;;;;;;;7.45;49.01;97492.66;5071512;28;20208;-81
2022/03/22 06:31:17;;;;;;;9.03;6.00;;;;;;;6.95;53.27;97493.25;5071000;28;20205;-83
2022/03/22 06:33:44;;;;;;;12.30;6.40;;;;;;;6.80;54.88;97476.25;5065827;28;20216;-82
2022/03/22 06:36:13;;;;;;;11.83;5.97;;;;;;;6.91;55.90;97480.34;5060766;28;20202;-83
2022/03/22 06:38:40;;;;;;;11.40;7.10;;;;;;;6.13;61.69;97496.59;5061641;28;20237;-83
2022/03/22 06:41:07;;;;;;;9.97;7.13;;;;;;;6.01;64.09;97485.44;5065474;28;20209;-83
2022/03/22 06:43:34;;;;;;;11.30;7.32;;;;;;;6.18;63.41;97487.03;5090080;28;20433;-82
2022/03/22 06:46:02;;;;;;;11.65;7.63;;;;;;;6.16;66.37;97478.31;5049366;28;20411;-83
2022/03/22 06:48:29;;;;;;;10.68;7.45;;;;;;;6.29;66.61;97491.16;5063922;28;20427;-83
2022/03/22 06:50:56;;;;;;;13.73;7.90;;;;;;;5.60;66.60;97492.75;5051054;28;20519;-82
2022/03/22 06:53:24;;;;;;;12.70;7.45;;;;;;;5.77;68.08;97489.00;5078073;28;20427;-83
2022/03/22 06:55:52;;;;;;;13.27;7.68;;;;;;;6.02;65.40;97474.53;5065554;28;20419;-83
2022/03/22 06:58:21;;;;;;;11.15;7.63;;;;;;;6.06;67.41;97475.84;5062975;28;20417;-83
2022/03/22 07:00:49;;;;;;;13.45;8.27;;;;;;;5.80;71.46;97502.03;5062609;28;20429;-82
2022/03/22 07:03:17;;;;;;;16.48;8.05;;;;;;;5.87;69.63;97494.97;5062101;28;20425;-83
2022/03/22 07:05:46;;;;;;;13.23;8.57;;;;;;;5.77;70.84;97499.72;5064262;28;20417;-81
2022/03/22 07:08:13;;;;;;;12.95;8.55;;;;;;;5.89;70.82;97497.53;5062085;28;20437;-83
2022/03/22 07:11:47;;;;;;;14.00;8.20;;;;;;;6.05;70.02;97481.38;5070723;28;20419;-83
2022/03/22 07:13:32;;;;;;;17.73;9.20;;;;;;;6.00;71.26;97489.94;5065942;28;20474;-83
2022/03/22 07:16:00;;;;;;;16.17;9.00;;;;;;;5.71;73.31;97505.75;5071796;28;20414;-84
2022/03/22 07:18:27;;;;;;;13.40;8.98;;;;;;;5.37;75.81;97507.81;5066469;28;20427;-83
2022/03/22 07:20:54;;;;;;;16.50;9.05;;;;;;;5.51;74.20;97513.34;5062770;28;20431;-83
2022/03/22 07:23:21;;;;;;;14.43;8.82;;;;;;;5.72;72.74;97502.06;5064402;28;20421;-84
2022/03/22 07:25:50;;;;;;;15.60;9.18;;;;;;;5.65;73.47;97501.94;5059559;28;20426;-83
2022/03/22 07:28:17;;;;;;;14.27;8.40;;;;;;;5.68;73.40;97511.47;5068599;28;20210;-83
2022/03/22 07:30:44;;;;;;;12.30;7.20;;;;;;;5.91;72.07;97493.66;5088824;28;20281;-83
2022/03/22 07:33:11;;;;;;;14.83;7.90;;;;;;;5.91;71.96;97485.63;5067852;28;20198;-83
2022/03/22 07:35:38;;;;;;;13.10;8.27;;;;;;;5.75;73.27;97504.41;5079017;28;20209;-80
2022/03/22 07:38:06;;;;;;;17.13;9.13;;;;;;;5.84;72.54;97487.31;5072613;28;20193;-82
2022/03/22 07:40:33;;;;;;;17.20;8.20;;;;;;;5.71;72.63;97489.66;5102906;28;20221;-82
2022/03/22 07:43:01;;;;;;;13.77;8.57;;;;;;;5.85;71.38;97498.88;5081904;28;20248;-82
2022/03/22 07:45:28;;;;;;;15.47;8.63;;;;;;;5.92;70.55;97495.34;5071463;28;20202;-82
2022/03/22 07:47:55;;;;;;;13.53;7.57;;;;;;;5.81;70.79;97476.06;5066477;28;20198;-80
2022/03/22 07:53:07;;;;;;;15.40;8.57;;;;;;;5.81;70.72;97487.63;5063984;28;20210;-83
2022/03/22 07:55:37;;;;;;;19.40;8.17;;;;;;;5.88;68.89;97485.97;5067763;28;20217;-83
2022/03/22 07:58:06;;;;;;;15.73;7.83;;;;;;;6.01;67.32;97482.75;5076006;28;20250;-83
2022/03/22 08:00:37;;;;;;;10.13;6.90;;;;;;;5.96;66.51;97491.28;5083260;28;20274;-82
2022/03/22 08:03:08;;;;;;;14.50;7.07;;;;;;;6.05;66.64;97468.81;5069942;28;20226;-81
2022/03/22 08:05:36;;;;;;;12.73;7.57;;;;;;;6.07;66.62;97463.28;5065896;28;20238;-83
2022/03/22 08:08:03;;;;;;;12.50;6.90;;;;;;;6.05;64.98;97473.31;5080807;28;20298;-83
2022/03/22 08:10:32;;;;;;;10.20;6.03;;;;;;;6.26;63.07;97460.16;5064188;28;20232;-84
2022/03/22 08:12:59;;;;;;;11.53;6.63;;;;;;;6.33;61.71;97476.38;5068004;28;20224;-83
2022/03/22 08:15:28;;;;;;;11.03;6.13;;;;;;;6.36;60.35;97474.19;5072533;28;20252;-83
2022/03/22 08:17:56;;;;;;;8.17;6.17;;;;;;;6.51;59.42;97468.91;5066405;28;20205;-84
2022/03/22 08:20:27;;;;;;;12.63;6.70;;;;;;;6.52;59.08;97467.88;5070535;28;20239;-84
2022/03/22 08:22:59;;;;;;;11.93;6.17;;;;;;;6.66;57.66;97471.66;5081020;28;20229;-83
2022/03/22 08:25:28;;;;;;;15.20;6.30;;;;;;;6.97;56.41;97464.38;5068292;28;20233;-84
2022/03/22 08:27:57;;;;;;;9.47;6.47;;;;;;;7.32;54.50;97468.22;5056770;28;20210;-84
2022/03/22 08:30:25;;;;;;;11.27;6.40;;;;;;;7.83;54.56;97465.69;5077755;28;20201;-83
2022/03/22 08:32:55;;;;;;;10.23;5.80;;;;;;;8.07;51.21;97457.34;5062081;28;20233;-83
2022/03/22 08:35:24;;;;;;;9.63;5.37;;;;;;;8.42;49.97;97460.28;5084399;28;20229;-83
2022/03/22 08:37:51;;;;;;;9.00;6.10;;;;;;;8.64;47.88;97453.88;5064183;28;20217;-83
2022/03/22 08:40:19;;;;;;;11.80;6.53;;;;;;;8.82;48.20;97456.16;5059560;28;20255;-84
2022/03/22 08:42:48;;;;;;;12.83;6.57;;;;;;;9.14;49.39;97470.94;5073903;28;20232;-83
2022/03/22 08:45:16;;;;;;;12.13;6.17;;;;;;;9.28;50.29;97465.47;5074914;28;20225;-84
2022/03/22 08:47:45;;;;;;;10.87;6.07;;;;;;;9.37;49.16;97476.94;5077243;28;20300;-83
2022/03/22 08:50:17;;;;;;;14.03;6.90;;;;;;;9.45;49.40;97468.72;5056212;28;20253;-84
2022/03/22 08:52:47;;;;;;;11.33;5.90;;;;;;;9.45;47.60;97474.09;5097534;28;20277;-83
2022/03/22 08:55:16;;;;;;;11.00;6.23;;;;;;;9.49;47.76;97448.44;5069074;28;20243;-83
2022/03/22 08:57:46;;;;;;;10.13;6.00;;;;;;;9.66;47.65;97465.13;5078997;28;20320;-82
2022/03/22 09:00:15;;;;;;;8.17;5.77;;;;;;;9.73;46.57;97458.75;5061390;28;20229;-82
2022/03/22 09:02:44;;;;;;;12.17;6.23;;;;;;;9.88;45.90;97451.38;5079654;28;20283;-82
2022/03/22 09:07:58;;;;;;;11.57;5.60;;;;;;;10.15;44.65;97454.22;5063497;28;20206;-82
2022/03/22 09:10:26;;;;;;;11.57;5.57;;;;;;;10.10;43.82;97445.88;5056738;28;20202;-82
2022/03/22 09:12:54;;;;;;;10.13;5.43;;;;;;;10.21;41.97;97448.03;5101764;28;20212;-82
2022/03/22 09:15:22;;;;;;;10.23;5.40;;;;;;;10.17;40.66;97444.03;5063881;28;20213;-83
2022/03/22 09:17:50;;;;;;;11.20;5.90;;;;;;;10.32;41.30;97436.66;5078554;28;20256;-83
2022/03/22 09:20:17;;;;;;;5.93;4.67;;;;;;;10.53;38.28;97431.13;5069894;28;20255;-83
2022/03/22 09:22:48;;;;;;;7.73;4.87;;;;;;;10.67;37.83;97425.75;5062156;28;20226;-83
2022/03/22 09:25:17;;;;;;;5.10;4.20;;;;;;;10.94;35.16;97435.56;5097400;28;20206;-83
2022/03/22 09:27:45;;;;;;;7.77;5.40;;;;;;;11.18;37.17;97426.03;5068861;28;20268;-82
2022/03/22 09:30:13;;;;;;;10.23;4.87;;;;;;;11.17;37.06;97414.38;5062387;28;20209;-82
2022/03/22 09:32:42;;;;;;;7.67;5.40;;;;;;;11.34;37.24;97418.31;5066326;28;20210;-83
2022/03/22 09:35:11;;;;;;;7.67;4.50;;;;;;;11.47;34.12;97413.97;5067624;28;20239;-83
2022/03/22 09:37:39;;;;;;;7.50;4.80;;;;;;;11.45;31.80;97402.50;5058367;28;20238;-83
2022/03/22 09:40:07;;;;;;;11.10;4.87;;;;;;;11.52;30.45;97420.38;5065591;28;20226;-83
2022/03/22 09:42:38;;;;;;;6.30;4.30;;;;;;;11.78;28.71;97419.53;5074187;28;20305;-83
2022/03/22 09:45:09;;;;;;;5.90;4.20;;;;;;;11.89;29.80;97410.78;5057497;28;20237;-84
2022/03/22 09:47:36;;;;;;;8.93;4.90;;;;;;;12.02;29.31;97396.34;5064593;28;20210;-83
2022/03/22 09:50:04;;;;;;;6.30;4.60;;;;;;;11.79;29.36;97398.72;5092215;28;20203;-82
2022/03/22 09:52:32;;;;;;;10.13;4.87;;;;;;;12.03;29.88;97409.69;5066453;28;20217;-82
2022/03/22 09:54:59;;;;;;;10.03;4.97;;;;;;;12.01;29.05;97408.22;5056051;28;20202;-83
2022/03/22 09:57:28;;;;;;;7.33;4.47;;;;;;;12.14;29.74;97408.19;5053676;28;20198;-83
2022/03/22 09:59:56;;;;;;;8.17;4.77;;;;;;;12.41;30.11;97398.91;5087049;28;20932;-83
2022/03/22 10:02:28;;;;;;;7.13;4.50;;;;;;;12.41;29.46;97411.63;5067033;28;20213;-84
2022/03/22 10:04:55;;;;;;;8.30;4.20;;;;;;;12.35;27.68;97407.03;5055969;28;20268;-82
2022/03/22 10:07:24;;;;;;;7.27;4.37;;;;;;;12.42;27.20;97402.41;5066640;28;20262;-83
2022/03/22 10:09:58;;;;;;;6.37;4.30;;;;;;;12.69;26.24;97406.66;5075877;28;20316;-84
2022/03/22 10:12:29;;;;;;;9.40;5.07;;;;;;;12.99;27.77;97406.88;5052507;28;20233;-83
2022/03/22 10:15:08;;;;;;;11.83;4.87;;;;;;;13.09;27.71;97390.97;5089844;28;20197;-83
2022/03/22 10:17:35;;;;;;;8.27;5.00;;;;;;;13.05;27.16;97391.59;5061702;28;20206;-83
2022/03/22 10:20:05;;;;;;;9.13;5.07;;;;;;;13.11;27.69;97385.28;5054987;28;20198;-83
2022/03/22 10:22:34;;;;;;;7.23;5.00;;;;;;;13.35;27.62;97387.22;5091613;28;20325;-83
2022/03/22 10:25:03;;;;;;;6.73;5.03;;;;;;;13.55;27.93;97389.75;5058779;28;20237;-84
2022/03/22 10:27:31;;;;;;;10.60;5.77;;;;;;;13.45;27.48;97384.81;5091296;28;20213;-82
2022/03/22 10:30:02;;;;;;;10.90;5.47;;;;;;;13.60;27.20;97381.78;5065725;28;20269;-82
2022/03/22 10:32:34;;;;;;;9.33;5.13;;;;;;;13.56;27.94;97386.81;5100201;28;20250;-82
2022/03/22 10:35:11;;;;;;;11.90;5.63;;;;;;;13.68;28.37;97377.94;5054406;28;20274;-84
2022/03/22 10:37:39;;;;;;;10.30;5.07;;;;;;;13.81;26.89;97367.75;5064306;28;20240;-84
2022/03/22 10:40:24;;;;;;;7.87;5.60;;;;;;;13.66;27.26;97377.31;5057760;28;20274;-83
2022/03/22 10:42:56;;;;;;;9.47;5.43;;;;;;;14.06;26.70;97370.38;5100813;28;20258;-83
2022/03/22 10:45:25;;;;;;;7.27;5.20;;;;;;;14.28;27.09;97368.88;5083728;28;20206;-82
2022/03/22 10:47:52;;;;;;;12.83;5.83;;;;;;;14.45;25.94;97360.13;5070315;28;20299;-83
2022/03/22 10:50:19;;;;;;;9.67;5.30;;;;;;;14.60;26.20;97365.97;5081521;28;20210;-83
2022/03/22 10:52:52;;;;;;;8.53;6.10;;;;;;;14.70;26.91;97360.78;5081756;28;20210;-82
2022/03/22 10:55:21;;;;;;;9.70;5.77;;;;;;;14.61;28.17;97343.16;5067873;28;20243;-83
2022/03/22 10:57:51;;;;;;;11.03;5.73;;;;;;;14.59;26.51;97335.22;5059805;28;20284;-82
2022/03/22 11:00:19;;;;;;;8.90;5.80;;;;;;;14.85;26.02;97347.59;5060093;28;20241;-84
2022/03/22 11:02:51;;;;;;;7.27;5.40;;;;;;;14.77;26.24;97339.78;5062618;28;20209;-83
2022/03/22 11:05:20;;;;;;;7.80;5.77;;;;;;;15.02;26.68;97351.28;5064861;28;20232;-83
2022/03/22 11:07:49;;;;;;;11.17;6.93;;;;;;;15.19;26.43;97403.13;5074060;28;20201;-83
2022/03/22 11:10:24;;;;;;;11.63;6.13;;;;;;;15.24;26.00;97353.44;5061177;28;20233;-83
2022/03/22 11:12:52;;;;;;;12.17;6.87;;;;;;;15.50;26.85;97358.41;5092603;28;20235;-83
2022/03/22 11:15:19;;;;;;;11.97;6.03;;;;;;;15.56;27.20;97356.69;5065408;28;20233;-82
2022/03/22 11:17:51;;;;;;;10.60;6.60;;;;;;;15.62;27.79;97351.13;5066203;28;20237;-83
2022/03/22 11:20:19;;;;;;;10.67;6.50;;;;;;;15.62;27.63;97350.28;5065633;28;20198;-82
2022/03/22 11:22:51;;;;;;;12.73;7.57;;;;;;;15.78;27.03;97352.28;5061610;28;20225;-83
2022/03/22 11:25:20;;;;;;;12.23;6.93;;;;;;;15.61;26.72;97346.75;5076018;28;20222;-83
2022/03/22 11:28:05;;;;;;;14.83;6.90;;;;;;;15.52;26.81;97339.97;5056867;28;20220;-83
2022/03/22 11:30:32;;;;;;;12.33;7.10;;;;;;;15.68;26.98;97358.31;5063291;28;20205;-82
2022/03/22 11:35:51;;;;;;;12.10;7.17;;;;;;;15.97;27.26;97347.53;5061859;28;20220;-83
2022/03/22 11:38:42;;;;;;;10.10;6.27;;;;;;;16.25;27.03;97342.94;5060905;28;20213;-82
2022/03/22 11:44:17;;;;;;;14.20;7.67;;;;;;;16.84;26.60;97342.72;5074625;28;20318;-79
2022/03/22 11:46:46;;;;;;;13.10;7.63;;;;;;;16.19;27.22;97345.78;5056256;28;20212;-79
2022/03/22 11:49:21;;;;;;;10.17;7.00;;;;;;;16.10;26.97;97329.00;5063384;28;20190;-80
2022/03/22 11:51:51;;;;;;;9.17;7.30;;;;;;;16.18;27.44;97344.13;5077818;28;20201;-79
2022/03/22 11:54:19;;;;;;;13.77;7.90;;;;;;;15.98;27.84;97336.38;5054272;28;20194;-79
2022/03/22 11:56:47;;;;;;;12.43;8.40;;;;;;;16.41;29.06;97337.81;5053810;28;20298;-80
2022/03/22 11:59:16;;;;;;;14.33;8.00;;;;;;;16.59;28.08;97326.66;5069305;28;20256;-80
2022/03/22 12:01:56;;;;;;;11.37;7.53;;;;;;;16.13;27.59;97342.16;5057000;28;20296;-79
2022/03/22 12:04:34;;;;;;;11.83;7.87;;;;;;;16.23;28.12;97328.75;5074494;28;20317;-79
2022/03/22 12:07:02;;;;;;;10.70;7.10;;;;;;;16.63;27.49;97331.44;5059464;28;20284;-82
2022/03/22 12:09:29;;;;;;;11.80;7.43;;;;;;;16.33;26.43;97338.19;5066281;28;20213;-82
2022/03/22 12:11:57;;;;;;;10.00;7.03;;;;;;;16.69;25.84;97334.25;5070708;28;20270;-81